createdAt,value
2023-10-10T00:00:28.201Z,14.00
2023-10-10T00:01:32.292Z,14.00
2023-10-10T00:02:37.069Z,13.88
2023-10-10T00:03:41.384Z,13.88
2023-10-10T00:04:45.158Z,13.88
2023-10-10T00:05:49.977Z,13.88
2023-10-10T00:06:54.032Z,13.88
2023-10-10T00:07:58.358Z,13.88
2023-10-10T00:09:02.645Z,13.81
2023-10-10T00:10:06.680Z,13.81
2023-10-10T00:11:11.120Z,13.81
2023-10-10T00:12:15.275Z,13.81
2023-10-10T00:13:19.576Z,13.81
2023-10-10T00:14:23.916Z,13.88
2023-10-10T00:15:28.430Z,13.88
2023-10-10T00:16:32.751Z,13.88
2023-10-10T00:17:37.120Z,13.94
2023-10-10T00:18:41.063Z,14.00
2023-10-10T00:19:45.359Z,14.00
2023-10-10T00:20:49.914Z,14.00
2023-10-10T00:21:53.968Z,14.00
2023-10-10T00:22:54.053Z,14.06
2023-10-10T00:23:58.376Z,14.00
2023-10-10T00:25:02.648Z,14.00
2023-10-10T00:26:07.246Z,14.00
2023-10-10T00:27:11.745Z,14.00
2023-10-10T00:28:15.816Z,13.94
2023-10-10T00:29:20.005Z,13.94
2023-10-10T00:30:24.404Z,13.94
2023-10-10T00:31:28.777Z,13.88
2023-10-10T00:32:33.081Z,13.88
2023-10-10T00:33:37.033Z,13.81
2023-10-10T00:34:41.340Z,13.88
2023-10-10T00:35:46.301Z,13.88
2023-10-10T00:36:50.218Z,13.81
2023-10-10T00:37:54.542Z,13.81
2023-10-10T00:38:58.572Z,13.81
2023-10-10T00:40:02.898Z,13.81
2023-10-10T00:41:07.444Z,13.81
2023-10-10T00:42:11.461Z,13.81
2023-10-10T00:43:15.748Z,13.81
2023-10-10T00:44:20.463Z,13.81
2023-10-10T00:45:24.610Z,13.81
2023-10-10T00:46:28.955Z,13.81
2023-10-10T00:47:33.400Z,13.81
2023-10-10T00:48:37.529Z,13.81
2023-10-10T00:49:41.536Z,13.81
2023-10-10T00:50:46.105Z,13.81
2023-10-10T00:51:50.131Z,13.81
2023-10-10T00:52:50.738Z,13.81
2023-10-10T00:53:54.802Z,13.81
2023-10-10T00:54:59.081Z,13.81
2023-10-10T00:56:03.185Z,13.81
2023-10-10T00:57:07.969Z,13.81
2023-10-10T00:58:11.999Z,13.81
2023-10-10T00:59:16.183Z,13.81
2023-10-10T01:00:20.333Z,13.81
2023-10-10T01:01:24.920Z,13.81
2023-10-10T01:02:29.318Z,13.81
2023-10-10T01:03:33.691Z,13.81
2023-10-10T01:04:37.526Z,13.81
2023-10-10T01:05:41.834Z,13.81
2023-10-10T01:06:46.399Z,13.75
2023-10-10T01:07:50.704Z,13.75
2023-10-10T01:08:54.741Z,13.75
2023-10-10T01:09:59.297Z,13.69
2023-10-10T01:11:03.439Z,13.75
2023-10-10T01:12:07.914Z,13.75
2023-10-10T01:13:11.955Z,13.75
2023-10-10T01:14:16.480Z,13.75
2023-10-10T01:15:21.032Z,13.75
2023-10-10T01:16:25.154Z,13.75
2023-10-10T01:17:29.702Z,13.75
2023-10-10T01:18:33.432Z,13.69
2023-10-10T01:19:37.729Z,13.69
2023-10-10T01:20:42.022Z,13.62
2023-10-10T01:21:46.347Z,13.62
2023-10-10T01:22:46.680Z,13.62
2023-10-10T01:23:51.000Z,13.62
2023-10-10T01:24:55.049Z,13.62
2023-10-10T01:25:59.371Z,13.56
2023-10-10T01:27:03.935Z,13.62
2023-10-10T01:28:08.243Z,13.62
2023-10-10T01:29:12.267Z,13.62
2023-10-10T01:30:16.812Z,13.62
2023-10-10T01:31:21.204Z,13.62
2023-10-10T01:32:25.444Z,13.62
2023-10-10T01:33:29.440Z,13.62
2023-10-10T01:34:33.746Z,13.56
2023-10-10T01:35:38.097Z,13.50
2023-10-10T01:36:42.866Z,13.56
2023-10-10T01:37:47.169Z,13.50
2023-10-10T01:38:51.250Z,13.56
2023-10-10T01:39:55.753Z,13.56
2023-10-10T01:40:59.816Z,13.56
2023-10-10T01:42:03.857Z,13.56
2023-10-10T01:43:08.423Z,13.56
2023-10-10T01:44:12.849Z,13.50
2023-10-10T01:45:17.428Z,13.50
2023-10-10T01:46:21.614Z,13.50
2023-10-10T01:47:25.697Z,13.56
2023-10-10T01:48:29.676Z,13.50
2023-10-10T01:49:34.224Z,13.56
2023-10-10T02:09:04.040Z,13.50
2023-10-10T02:10:08.344Z,13.50
2023-10-10T02:11:12.632Z,13.50
2023-10-10T02:12:17.159Z,13.50
2023-10-10T02:13:21.017Z,13.50
2023-10-10T02:14:25.289Z,13.50
2023-10-10T02:15:29.824Z,13.50
2023-10-10T02:16:33.873Z,13.50
2023-10-10T02:17:38.465Z,13.56
2023-10-10T02:18:42.436Z,13.56
2023-10-10T02:19:46.725Z,13.56
2023-10-10T02:20:51.622Z,13.56
2023-10-10T02:21:55.836Z,13.56
2023-10-10T02:22:59.876Z,13.56
2023-10-10T02:24:03.895Z,13.56
2023-10-10T02:25:08.228Z,13.56
2023-10-10T02:26:12.799Z,13.56
2023-10-10T02:27:17.070Z,13.56
2023-10-10T02:28:21.363Z,13.56
2023-10-10T02:29:25.745Z,13.56
2023-10-10T02:30:30.210Z,13.62
2023-10-10T02:31:34.485Z,13.56
2023-10-10T02:32:38.383Z,13.50
2023-10-10T02:33:42.842Z,13.56
2023-10-10T02:34:46.158Z,13.56
2023-10-10T02:35:48.004Z,13.56
2023-10-10T02:36:52.295Z,13.56
2023-10-10T02:37:56.847Z,13.56
2023-10-10T02:38:56.976Z,13.62
2023-10-10T02:40:00.957Z,13.62
2023-10-10T02:41:05.347Z,13.62
2023-10-10T02:42:09.821Z,13.62
2023-10-10T02:43:14.095Z,13.62
2023-10-10T02:44:18.664Z,13.62
2023-10-10T02:45:22.691Z,13.56
2023-10-10T02:46:27.022Z,13.56
2023-10-10T02:47:31.122Z,13.62
2023-10-10T02:48:35.322Z,13.62
2023-10-10T02:49:39.853Z,13.62
2023-10-10T02:50:44.155Z,13.69
2023-10-10T02:51:48.180Z,13.62
2023-10-10T02:52:52.967Z,13.62
2023-10-10T02:53:57.015Z,13.62
2023-10-10T02:55:01.052Z,13.62
2023-10-10T02:56:05.383Z,13.62
2023-10-10T02:57:09.935Z,13.69
2023-10-10T02:58:14.176Z,13.62
2023-10-10T02:59:18.269Z,13.62
2023-10-10T03:00:22.780Z,13.56
2023-10-10T03:01:27.082Z,13.62
2023-10-10T03:02:31.687Z,13.62
2023-10-10T03:03:35.810Z,13.62
2023-10-10T03:04:39.932Z,13.69
2023-10-10T03:05:44.017Z,13.69
2023-10-10T03:06:48.254Z,13.69
2023-10-10T03:07:52.579Z,13.69
2023-10-10T03:08:52.923Z,13.69
2023-10-10T03:09:57.193Z,13.69
2023-10-10T03:11:01.749Z,13.69
2023-10-10T03:12:05.524Z,13.69
2023-10-10T03:13:10.111Z,13.69
2023-10-10T03:14:14.630Z,13.69
2023-10-10T03:15:18.647Z,13.69
2023-10-10T03:16:22.981Z,13.69
2023-10-10T03:17:27.055Z,13.69
2023-10-10T03:18:31.279Z,13.69
2023-10-10T03:19:35.564Z,13.69
2023-10-10T03:20:39.942Z,13.69
2023-10-10T03:21:44.177Z,13.69
2023-10-10T03:22:48.444Z,13.69
2023-10-10T03:23:53.000Z,13.69
2023-10-10T03:24:57.312Z,13.69
2023-10-10T03:26:01.638Z,13.69
2023-10-10T03:27:05.632Z,13.69
2023-10-10T03:28:10.169Z,13.69
2023-10-10T03:29:14.584Z,13.69
2023-10-10T03:30:18.765Z,13.69
2023-10-10T03:31:23.142Z,13.69
2023-10-10T03:32:27.632Z,13.69
2023-10-10T03:33:31.941Z,13.69
2023-10-10T03:34:35.701Z,13.69
2023-10-10T03:35:40.322Z,13.62
2023-10-10T03:36:44.586Z,13.62
2023-10-10T03:37:48.597Z,13.62
2023-10-10T03:38:48.953Z,13.62
2023-10-10T03:39:52.971Z,13.62
2023-10-10T03:40:57.270Z,13.62
2023-10-10T03:42:01.822Z,13.62
2023-10-10T03:43:06.136Z,13.62
2023-10-10T03:44:11.726Z,13.62
2023-10-10T03:45:10.547Z,13.62
2023-10-10T03:46:14.561Z,13.56
2023-10-10T03:47:19.395Z,13.56
2023-10-10T03:48:23.382Z,13.56
2023-10-10T03:49:27.420Z,13.56
2023-10-10T03:50:31.748Z,13.56
2023-10-10T03:51:36.269Z,13.56
2023-10-10T03:52:40.589Z,13.56
2023-10-10T03:53:44.602Z,13.56
2023-10-10T03:54:49.162Z,13.56
2023-10-10T03:55:53.454Z,13.56
2023-10-10T03:56:57.733Z,13.50
2023-10-10T03:58:02.062Z,13.56
2023-10-10T03:59:06.195Z,13.56
2023-10-10T04:00:10.525Z,13.56
2023-10-10T04:01:14.780Z,13.56
2023-10-10T04:02:19.241Z,13.56
2023-10-10T04:03:23.625Z,13.56
2023-10-10T04:04:27.809Z,13.62
2023-10-10T04:05:32.153Z,13.62
2023-10-10T04:06:36.402Z,13.56
2023-10-10T04:07:42.802Z,13.56
2023-10-10T04:08:41.094Z,13.56
2023-10-10T04:09:45.121Z,13.62
2023-10-10T04:10:48.444Z,13.62
2023-10-10T04:11:53.455Z,13.62
2023-10-10T04:12:57.746Z,13.62
2023-10-10T04:14:02.321Z,13.62
2023-10-10T04:15:06.627Z,13.62
2023-10-10T04:16:10.644Z,13.56
2023-10-10T04:17:15.504Z,13.62
2023-10-10T04:18:19.569Z,13.56
2023-10-10T04:19:23.514Z,13.62
2023-10-10T04:20:27.918Z,13.56
2023-10-10T04:21:32.334Z,13.56
2023-10-10T04:22:36.634Z,13.62
2023-10-10T04:23:40.954Z,13.62
2023-10-10T04:24:44.962Z,13.62
2023-10-10T04:25:49.527Z,13.62
2023-10-10T04:26:53.818Z,13.62
2023-10-10T04:27:58.339Z,13.62
2023-10-10T04:29:02.454Z,13.62
2023-10-10T04:30:06.428Z,13.62
2023-10-10T04:31:10.771Z,13.62
2023-10-10T04:32:15.352Z,13.62
2023-10-10T04:33:19.697Z,13.62
2023-10-10T04:34:23.895Z,13.62
2023-10-10T04:35:28.231Z,13.62
2023-10-10T04:36:32.754Z,13.56
2023-10-10T04:37:36.763Z,13.56
2023-10-10T04:38:37.261Z,13.56
2023-10-10T04:39:41.459Z,13.56
2023-10-10T04:40:45.501Z,13.56
2023-10-10T04:41:49.528Z,13.50
2023-10-10T04:42:53.828Z,13.50
2023-10-10T04:43:58.113Z,13.44
2023-10-10T04:45:02.403Z,13.50
2023-10-10T04:46:06.720Z,13.50
2023-10-10T04:47:11.340Z,13.50
2023-10-10T04:48:15.820Z,13.44
2023-10-10T04:49:19.859Z,13.44
2023-10-10T04:50:24.265Z,13.50
2023-10-10T04:51:28.149Z,13.50
2023-10-10T04:52:32.455Z,13.50
2023-10-10T04:53:36.792Z,13.38
2023-10-10T04:54:41.327Z,13.38
2023-10-10T04:55:45.590Z,13.38
2023-10-10T04:56:50.182Z,13.44
2023-10-10T04:57:54.466Z,13.44
2023-10-10T04:58:58.230Z,13.44
2023-10-10T05:00:02.797Z,13.44
2023-10-10T05:01:07.143Z,13.50
2023-10-10T05:02:11.455Z,13.44
2023-10-10T05:03:15.516Z,13.44
2023-10-10T05:04:19.865Z,13.44
2023-10-10T05:05:24.362Z,13.44
2023-10-10T05:06:28.581Z,13.44
2023-10-10T05:07:32.898Z,13.44
2023-10-10T05:08:33.682Z,13.44
2023-10-10T05:09:37.271Z,13.38
2023-10-10T05:10:41.314Z,13.44
2023-10-10T05:11:45.942Z,13.38
2023-10-10T05:12:49.983Z,13.44
2023-10-10T05:13:54.540Z,13.44
2023-10-10T05:14:58.570Z,13.44
2023-10-10T05:16:02.935Z,13.44
2023-10-10T05:17:07.209Z,13.44
2023-10-10T05:18:12.035Z,13.44
2023-10-10T05:19:15.990Z,13.44
2023-10-10T05:20:20.358Z,13.44
2023-10-10T05:21:24.641Z,13.44
2023-10-10T05:22:28.917Z,13.38
2023-10-10T05:23:33.087Z,13.38
2023-10-10T05:24:37.257Z,13.38
2023-10-10T05:25:41.797Z,13.38
2023-10-10T05:26:46.068Z,13.44
2023-10-10T05:27:50.369Z,13.44
2023-10-10T05:28:54.404Z,13.44
2023-10-10T05:29:58.982Z,13.38
2023-10-10T05:31:04.496Z,13.38
2023-10-10T05:32:03.106Z,13.38
2023-10-10T05:33:07.700Z,13.38
2023-10-10T05:34:11.692Z,13.38
2023-10-10T05:35:16.357Z,13.38
2023-10-10T05:36:20.578Z,13.31
2023-10-10T05:37:24.644Z,13.38
2023-10-10T05:38:25.242Z,13.38
2023-10-10T05:39:29.233Z,13.38
2023-10-10T05:40:33.565Z,13.31
2023-10-10T05:41:38.113Z,13.31
2023-10-10T05:42:42.379Z,13.31
2023-10-10T05:43:46.163Z,13.31
2023-10-10T05:44:50.718Z,13.31
2023-10-10T05:45:55.314Z,13.31
2023-10-10T05:46:59.315Z,13.31
2023-10-10T05:48:03.678Z,13.25
2023-10-10T05:49:07.926Z,13.31
2023-10-10T05:50:12.539Z,13.19
2023-10-10T05:51:16.571Z,13.31
2023-10-10T05:52:20.585Z,13.25
2023-10-10T05:53:25.240Z,13.25
2023-10-10T05:54:29.464Z,13.31
2023-10-10T05:55:33.502Z,13.31
2023-10-10T05:56:38.128Z,13.31
2023-10-10T05:57:42.092Z,13.31
2023-10-10T05:58:46.617Z,13.38
2023-10-10T05:59:50.946Z,13.44
2023-10-10T06:00:55.311Z,13.44
2023-10-10T06:01:59.575Z,13.44
2023-10-10T06:03:03.684Z,13.44
2023-10-10T06:04:07.970Z,13.44
2023-10-10T06:05:12.495Z,13.44
2023-10-10T06:06:16.521Z,13.56
2023-10-10T06:07:20.811Z,13.56
2023-10-10T06:08:21.213Z,13.56
2023-10-10T06:09:25.507Z,13.50
2023-10-10T06:10:29.770Z,13.50
2023-10-10T06:11:34.132Z,13.44
2023-10-10T06:12:38.609Z,13.44
2023-10-10T06:13:42.432Z,13.50
2023-10-10T06:14:46.777Z,13.50
2023-10-10T06:15:51.498Z,13.44
2023-10-10T06:16:55.406Z,13.50
2023-10-10T06:17:59.959Z,13.44
2023-10-10T06:19:04.168Z,13.44
2023-10-10T06:20:08.268Z,13.44
2023-10-10T06:21:13.077Z,13.44
2023-10-10T06:22:17.081Z,13.44
2023-10-10T06:23:21.426Z,13.50
2023-10-10T06:24:25.674Z,13.50
2023-10-10T06:25:30.022Z,13.50
2023-10-10T06:26:34.334Z,13.50
2023-10-10T06:27:38.566Z,13.50
2023-10-10T06:28:42.615Z,13.56
2023-10-10T06:29:47.183Z,13.56
2023-10-10T06:30:52.169Z,13.56
2023-10-10T06:31:55.928Z,13.56
2023-10-10T06:33:00.097Z,13.56
2023-10-10T06:34:04.286Z,13.56
2023-10-10T06:35:08.862Z,13.56
2023-10-10T06:36:13.156Z,13.62
2023-10-10T06:37:17.453Z,13.62
2023-10-10T06:38:23.530Z,13.69
2023-10-10T06:39:27.561Z,13.75
2023-10-10T06:40:31.873Z,13.75
2023-10-10T06:41:36.239Z,13.81
2023-10-10T06:42:40.473Z,13.88
2023-10-10T06:43:44.779Z,13.94
2023-10-10T06:44:49.120Z,14.00
2023-10-10T06:45:53.375Z,14.00
2023-10-10T06:46:57.675Z,14.13
2023-10-10T06:48:02.292Z,14.19
2023-10-10T06:49:06.524Z,14.19
2023-10-10T06:50:10.609Z,14.25
2023-10-10T06:51:14.591Z,14.31
2023-10-10T06:52:18.886Z,14.38
2023-10-10T06:53:23.227Z,14.44
2023-10-10T06:54:27.478Z,14.38
2023-10-10T06:55:31.763Z,14.25
2023-10-10T06:56:36.094Z,14.25
2023-10-10T06:57:44.531Z,14.25
2023-10-10T06:58:44.928Z,14.19
2023-10-10T06:59:49.222Z,14.13
2023-10-10T07:00:53.548Z,14.19
2023-10-10T07:01:57.573Z,14.19
2023-10-10T07:03:01.973Z,14.25
2023-10-10T07:04:06.539Z,14.25
2023-10-10T07:05:11.659Z,14.31
2023-10-10T07:06:15.054Z,14.25
2023-10-10T07:07:19.355Z,14.25
2023-10-10T07:08:24.987Z,14.19
2023-10-10T07:09:28.745Z,14.25
2023-10-10T07:10:33.304Z,14.25
2023-10-10T07:11:37.620Z,14.19
2023-10-10T07:12:41.645Z,14.25
2023-10-10T07:13:46.234Z,14.25
2023-10-10T07:14:50.588Z,14.25
2023-10-10T07:15:54.858Z,14.25
2023-10-10T07:16:59.126Z,14.19
2023-10-10T07:18:03.286Z,14.19
2023-10-10T07:19:07.719Z,14.19
2023-10-10T07:20:11.778Z,14.19
2023-10-10T07:21:16.357Z,14.25
2023-10-10T07:22:20.646Z,14.31
2023-10-10T07:23:24.764Z,14.38
2023-10-10T07:24:29.505Z,14.38
2023-10-10T07:25:33.743Z,14.44
2023-10-10T07:26:37.996Z,14.44
2023-10-10T07:27:42.178Z,14.50
2023-10-10T07:28:46.504Z,14.63
2023-10-10T07:29:50.599Z,14.69
2023-10-10T07:30:54.874Z,14.69
2023-10-10T07:31:59.157Z,14.81
2023-10-10T07:33:03.845Z,14.81
2023-10-10T07:34:08.315Z,14.81
2023-10-10T07:35:12.396Z,14.75
2023-10-10T07:36:16.406Z,14.81
2023-10-10T07:37:20.723Z,14.81
2023-10-10T07:38:26.566Z,14.87
2023-10-10T07:39:30.336Z,14.81
2023-10-10T07:40:34.624Z,14.75
2023-10-10T07:41:39.209Z,14.75
2023-10-10T07:42:43.748Z,14.69
2023-10-10T07:43:48.072Z,14.69
2023-10-10T07:44:52.135Z,14.75
2023-10-10T07:45:56.441Z,14.75
2023-10-10T07:47:00.488Z,14.75
2023-10-10T07:48:05.092Z,14.81
2023-10-10T07:49:09.066Z,14.81
2023-10-10T07:50:13.665Z,14.87
2023-10-10T07:51:18.175Z,14.94
2023-10-10T07:52:22.491Z,15.00
2023-10-10T07:53:26.633Z,15.06
2023-10-10T07:54:30.816Z,15.19
2023-10-10T07:55:35.135Z,15.31
2023-10-10T07:56:39.468Z,15.38
2023-10-10T07:57:43.468Z,15.44
2023-10-10T07:58:53.289Z,15.50
2023-10-10T07:59:52.325Z,15.50
2023-10-10T08:00:56.653Z,15.44
2023-10-10T08:02:00.970Z,15.56
2023-10-10T08:03:05.351Z,15.63
2023-10-10T08:04:09.660Z,15.81
2023-10-10T08:05:13.649Z,15.94
2023-10-10T08:06:18.191Z,16.06
2023-10-10T08:07:22.195Z,16.12
2023-10-10T08:08:27.802Z,16.00
2023-10-10T08:09:33.279Z,16.00
2023-10-10T08:10:36.410Z,15.88
2023-10-10T08:11:40.859Z,15.94
2023-10-10T08:12:52.718Z,15.81
2023-10-10T08:13:49.045Z,15.88
2023-10-10T08:14:52.697Z,16.00
2023-10-10T08:15:54.492Z,15.94
2023-10-10T08:16:58.831Z,15.94
2023-10-10T08:18:03.485Z,15.88
2023-10-10T08:19:07.392Z,16.00
2023-10-10T08:20:12.059Z,16.06
2023-10-10T08:21:16.297Z,16.00
2023-10-10T08:22:20.858Z,16.00
2023-10-10T08:23:24.677Z,16.00
2023-10-10T08:24:29.204Z,16.00
2023-10-10T08:25:33.498Z,16.00
2023-10-10T08:26:37.820Z,15.94
2023-10-10T08:27:43.105Z,16.00
2023-10-10T08:28:46.430Z,16.06
2023-10-10T08:29:50.822Z,16.12
2023-10-10T08:30:55.351Z,16.37
2023-10-10T08:31:59.123Z,16.75
2023-10-10T08:33:03.912Z,16.94
2023-10-10T08:34:08.038Z,17.06
2023-10-10T08:35:12.333Z,17.12
2023-10-10T08:36:16.596Z,16.94
2023-10-10T08:37:20.665Z,16.81
2023-10-10T08:38:25.161Z,16.62
2023-10-10T08:39:25.262Z,16.56
2023-10-10T08:40:29.305Z,16.56
2023-10-10T08:41:33.923Z,16.50
2023-10-10T08:42:38.447Z,16.56
2023-10-10T08:43:42.218Z,16.56
2023-10-10T08:44:46.845Z,16.75
2023-10-10T08:45:51.111Z,17.00
2023-10-10T08:46:55.432Z,17.19
2023-10-10T08:47:59.842Z,17.44
2023-10-10T08:49:03.984Z,17.62
2023-10-10T08:50:08.141Z,17.69
2023-10-10T08:51:12.832Z,17.87
2023-10-10T08:52:17.126Z,18.00
2023-10-10T08:53:20.982Z,17.94
2023-10-10T08:54:25.311Z,17.87
2023-10-10T08:55:29.801Z,17.69
2023-10-10T08:56:33.860Z,17.69
2023-10-10T08:57:38.434Z,17.69
2023-10-10T08:58:42.730Z,17.87
2023-10-10T08:59:47.418Z,17.87
2023-10-10T09:00:51.435Z,18.00
2023-10-10T09:01:55.748Z,17.81
2023-10-10T09:03:00.187Z,17.62
2023-10-10T09:04:04.213Z,17.69
2023-10-10T09:05:08.703Z,17.75
2023-10-10T09:06:13.001Z,17.94
2023-10-10T09:07:17.001Z,18.12
2023-10-10T09:08:21.570Z,18.12
2023-10-10T09:09:21.388Z,18.19
2023-10-10T09:10:25.688Z,18.25
2023-10-10T09:11:32.603Z,18.00
2023-10-10T09:12:34.570Z,17.87
2023-10-10T09:13:38.609Z,18.12
2023-10-10T09:14:42.960Z,18.31
2023-10-10T09:15:47.218Z,18.31
2023-10-10T09:16:51.842Z,18.56
2023-10-10T09:17:56.140Z,18.44
2023-10-10T09:19:00.399Z,18.44
2023-10-10T09:20:04.708Z,18.50
2023-10-10T09:21:09.298Z,18.56
2023-10-10T09:22:13.601Z,18.69
2023-10-10T09:23:17.440Z,18.81
2023-10-10T09:24:21.695Z,18.75
2023-10-10T09:25:26.235Z,18.75
2023-10-10T09:26:30.365Z,18.81
2023-10-10T09:27:34.855Z,18.81
2023-10-10T09:28:39.157Z,18.81
2023-10-10T09:29:43.359Z,19.00
2023-10-10T09:30:48.075Z,18.94
2023-10-10T09:31:52.071Z,19.00
2023-10-10T09:32:56.442Z,19.06
2023-10-10T09:34:00.660Z,19.00
2023-10-10T09:35:04.956Z,19.00
2023-10-10T09:36:09.290Z,19.25
2023-10-10T09:37:13.551Z,19.19
2023-10-10T09:38:17.925Z,19.12
2023-10-10T09:39:17.972Z,18.94
2023-10-10T09:40:22.014Z,19.06
2023-10-10T09:41:26.391Z,19.31
2023-10-10T09:42:30.963Z,19.62
2023-10-10T09:43:35.188Z,19.81
2023-10-10T09:44:39.261Z,19.87
2023-10-10T09:45:43.821Z,19.50
2023-10-10T09:46:48.126Z,19.37
2023-10-10T09:47:52.272Z,19.50
2023-10-10T09:48:56.742Z,19.50
2023-10-10T09:50:00.792Z,19.31
2023-10-10T09:51:05.372Z,19.19
2023-10-10T09:52:09.668Z,19.06
2023-10-10T09:53:14.073Z,18.94
2023-10-10T09:54:18.302Z,18.87
2023-10-10T09:55:22.276Z,19.19
2023-10-10T09:56:26.647Z,19.56
2023-10-10T09:57:30.884Z,19.37
2023-10-10T09:58:35.174Z,19.37
2023-10-10T09:59:39.781Z,19.37
2023-10-10T10:00:44.057Z,19.25
2023-10-10T10:01:48.427Z,19.19
2023-10-10T10:02:52.487Z,19.25
2023-10-10T10:03:56.824Z,19.56
2023-10-10T10:05:01.293Z,19.94
2023-10-10T10:06:05.576Z,20.19
2023-10-10T10:07:09.604Z,20.06
2023-10-10T10:08:13.966Z,20.00
2023-10-10T10:09:13.969Z,20.00
2023-10-10T10:10:18.321Z,20.00
2023-10-10T10:11:22.625Z,20.25
2023-10-10T10:12:27.429Z,20.69
2023-10-10T10:13:31.478Z,20.37
2023-10-10T10:14:35.806Z,20.25
2023-10-10T10:15:40.102Z,20.44
2023-10-10T10:16:44.223Z,20.37
2023-10-10T10:17:49.032Z,20.06
2023-10-10T10:18:52.989Z,19.81
2023-10-10T10:19:57.312Z,19.87
2023-10-10T10:21:01.375Z,20.00
2023-10-10T10:22:05.969Z,20.12
2023-10-10T10:23:10.324Z,20.31
2023-10-10T10:24:14.839Z,20.31
2023-10-10T10:25:18.656Z,20.31
2023-10-10T10:26:23.003Z,20.44
2023-10-10T10:27:27.251Z,20.50
2023-10-10T10:28:31.820Z,20.56
2023-10-10T10:29:36.160Z,20.62
2023-10-10T10:30:40.656Z,20.69
2023-10-10T10:31:44.747Z,20.88
2023-10-10T10:32:48.860Z,21.06
2023-10-10T10:33:53.321Z,21.06
2023-10-10T10:34:57.617Z,21.12
2023-10-10T10:36:01.928Z,21.12
2023-10-10T10:37:05.971Z,21.19
2023-10-10T10:38:10.275Z,21.06
2023-10-10T10:39:11.429Z,21.19
2023-10-10T10:40:14.660Z,21.44
2023-10-10T10:41:19.067Z,21.56
2023-10-10T10:42:23.552Z,21.44
2023-10-10T10:43:27.834Z,21.19
2023-10-10T10:44:31.957Z,21.00
2023-10-10T10:45:36.148Z,21.00
2023-10-10T10:46:40.466Z,21.12
2023-10-10T10:47:44.973Z,21.25
2023-10-10T10:48:49.045Z,21.37
2023-10-10T10:49:53.241Z,21.25
2023-10-10T10:50:59.206Z,21.44
2023-10-10T10:52:02.298Z,21.44
2023-10-10T10:53:06.568Z,21.31
2023-10-10T10:54:10.588Z,21.50
2023-10-10T10:55:14.614Z,21.62
2023-10-10T10:56:19.001Z,21.69
2023-10-10T10:57:29.806Z,21.69
2023-10-10T10:58:27.476Z,21.94
2023-10-10T10:59:31.749Z,21.75
2023-10-10T11:00:36.292Z,21.75
2023-10-10T11:01:40.653Z,21.62
2023-10-10T11:02:44.953Z,21.75
2023-10-10T11:03:48.951Z,21.87
2023-10-10T11:04:53.320Z,22.00
2023-10-10T11:05:57.816Z,22.00
2023-10-10T11:07:02.134Z,22.19
2023-10-10T11:08:06.172Z,22.19
2023-10-10T11:09:06.655Z,22.25
2023-10-10T11:10:10.666Z,22.19
2023-10-10T11:11:15.260Z,22.19
2023-10-10T11:12:19.548Z,22.19
2023-10-10T11:13:24.122Z,22.13
2023-10-10T11:14:27.951Z,22.06
2023-10-10T11:15:32.479Z,22.13
2023-10-10T11:16:36.527Z,22.13
2023-10-10T11:17:41.603Z,21.94
2023-10-10T11:18:45.421Z,21.62
2023-10-10T11:19:49.436Z,21.50
2023-10-10T11:20:53.768Z,21.56
2023-10-10T11:21:58.285Z,21.56
2023-10-10T11:23:02.870Z,21.50
2023-10-10T11:24:06.705Z,21.62
2023-10-10T11:25:11.227Z,21.75
2023-10-10T11:26:15.621Z,21.81
2023-10-10T11:27:19.579Z,21.75
2023-10-10T11:28:23.891Z,21.56
2023-10-10T11:29:28.236Z,21.50
2023-10-10T11:30:32.567Z,21.56
2023-10-10T11:31:37.343Z,21.69
2023-10-10T11:32:41.719Z,21.62
2023-10-10T11:33:45.654Z,21.75
2023-10-10T11:34:49.950Z,22.06
2023-10-10T11:35:54.005Z,22.13
2023-10-10T11:36:58.524Z,21.94
2023-10-10T11:38:02.523Z,21.81
2023-10-10T11:39:02.913Z,21.94
2023-10-10T11:40:06.910Z,22.06
2023-10-10T11:41:11.154Z,22.19
2023-10-10T11:42:15.655Z,22.31
2023-10-10T11:43:20.205Z,22.06
2023-10-10T11:44:24.526Z,22.13
2023-10-10T11:45:28.721Z,22.06
2023-10-10T11:46:32.663Z,22.31
2023-10-10T11:47:36.910Z,22.31
2023-10-10T11:48:41.408Z,22.19
2023-10-10T11:49:45.431Z,22.00
2023-10-10T11:50:49.812Z,21.81
2023-10-10T11:51:54.186Z,21.69
2023-10-10T11:52:58.678Z,21.56
2023-10-10T11:54:02.905Z,21.56
2023-10-10T11:55:06.873Z,21.56
2023-10-10T11:56:10.833Z,21.44
2023-10-10T11:57:15.288Z,21.37
2023-10-10T11:58:19.311Z,21.37
2023-10-10T11:59:23.858Z,21.44
2023-10-10T12:00:28.653Z,21.62
2023-10-10T12:01:32.503Z,21.75
2023-10-10T12:02:36.886Z,21.75
2023-10-10T12:03:41.883Z,21.81
2023-10-10T12:04:45.053Z,21.81
2023-10-10T12:05:49.368Z,21.62
2023-10-10T12:06:53.810Z,21.56
2023-10-10T12:07:58.085Z,21.50
2023-10-10T12:08:58.219Z,21.56
2023-10-10T12:10:02.220Z,21.56
2023-10-10T12:11:06.728Z,21.62
2023-10-10T12:12:11.058Z,21.56
2023-10-10T12:13:14.999Z,21.56
2023-10-10T12:14:19.540Z,21.56
2023-10-10T12:15:23.762Z,21.56
2023-10-10T12:16:27.785Z,21.56
2023-10-10T12:17:32.337Z,21.50
2023-10-10T12:18:36.766Z,21.50
2023-10-10T12:19:40.799Z,21.50
2023-10-10T12:20:45.112Z,21.50
2023-10-10T12:21:49.055Z,21.44
2023-10-10T12:22:53.320Z,21.37
2023-10-10T12:24:02.095Z,21.37
2023-10-10T12:25:01.876Z,21.31
2023-10-10T12:26:06.384Z,21.31
2023-10-10T12:27:10.748Z,21.31
2023-10-10T12:28:14.929Z,21.31
2023-10-10T12:29:18.959Z,21.25
2023-10-10T12:30:23.208Z,21.25
2023-10-10T12:31:27.472Z,21.25
2023-10-10T12:32:32.358Z,21.25
2023-10-10T12:33:36.521Z,21.19
2023-10-10T12:34:40.382Z,21.25
2023-10-10T12:35:44.799Z,21.31
2023-10-10T12:36:48.999Z,21.31
2023-10-10T12:37:53.275Z,21.37
2023-10-10T12:38:53.391Z,21.37
2023-10-10T12:39:57.590Z,21.37
2023-10-10T12:41:01.852Z,21.37
2023-10-10T12:42:06.128Z,21.56
2023-10-10T12:43:10.382Z,21.56
2023-10-10T12:44:14.992Z,21.56
2023-10-10T12:45:19.176Z,21.62
2023-10-10T12:46:23.248Z,21.69
2023-10-10T12:47:27.209Z,21.69
2023-10-10T12:48:31.839Z,21.75
2023-10-10T12:49:35.965Z,21.75
2023-10-10T12:50:40.307Z,21.75
2023-10-10T12:51:44.473Z,21.69
2023-10-10T12:52:48.498Z,21.75
2023-10-10T12:53:53.609Z,21.75
2023-10-10T12:54:57.221Z,21.94
2023-10-10T12:56:01.723Z,22.00
2023-10-10T12:57:05.497Z,22.19
2023-10-10T12:58:09.768Z,22.31
2023-10-10T12:59:26.590Z,22.44
2023-10-10T13:00:18.353Z,22.50
2023-10-10T13:01:22.855Z,22.44
2023-10-10T13:02:27.301Z,22.44
2023-10-10T13:03:31.696Z,22.31
2023-10-10T13:04:35.646Z,22.25
2023-10-10T13:05:40.203Z,22.19
2023-10-10T13:06:43.924Z,22.13
2023-10-10T13:07:48.388Z,22.13
2023-10-10T13:08:48.565Z,22.06
2023-10-10T13:09:52.452Z,22.06
2023-10-10T13:10:56.711Z,22.13
2023-10-10T13:12:00.989Z,22.13
2023-10-10T13:13:05.211Z,22.13
2023-10-10T13:14:09.726Z,22.13
2023-10-10T13:15:14.226Z,22.19
2023-10-10T13:16:18.254Z,22.25
2023-10-10T13:17:22.811Z,22.31
2023-10-10T13:18:26.678Z,22.44
2023-10-10T13:19:30.723Z,22.56
2023-10-10T13:20:35.283Z,22.69
2023-10-10T13:21:39.239Z,22.81
2023-10-10T13:22:43.772Z,22.87
2023-10-10T13:23:48.047Z,22.87
2023-10-10T13:24:52.080Z,22.94
2023-10-10T13:25:56.602Z,22.94
2023-10-10T13:27:00.834Z,23.00
2023-10-10T13:28:04.827Z,23.00
2023-10-10T13:29:09.328Z,23.00
2023-10-10T13:30:13.609Z,22.94
2023-10-10T13:31:17.607Z,22.94
2023-10-10T13:32:22.072Z,22.81
2023-10-10T13:33:26.251Z,22.81
2023-10-10T13:34:30.588Z,22.81
2023-10-10T13:35:34.867Z,22.81
2023-10-10T13:36:39.110Z,22.81
2023-10-10T13:37:43.142Z,22.75
2023-10-10T13:38:43.770Z,22.75
2023-10-10T13:39:47.492Z,22.69
2023-10-10T13:40:51.732Z,22.69
2023-10-10T13:41:58.385Z,22.69
2023-10-10T13:43:00.251Z,22.62
2023-10-10T13:44:04.760Z,22.62
2023-10-10T13:45:08.786Z,22.62
2023-10-10T13:46:13.365Z,22.62
2023-10-10T13:47:17.913Z,22.56
2023-10-10T13:48:22.214Z,22.62
2023-10-10T13:49:26.205Z,22.62
2023-10-10T13:50:30.512Z,22.56
2023-10-10T13:51:34.817Z,22.62
2023-10-10T13:52:38.851Z,22.56
2023-10-10T13:53:43.491Z,22.50
2023-10-10T13:54:47.757Z,22.44
2023-10-10T13:55:52.329Z,22.44
2023-10-10T13:56:56.718Z,22.37
2023-10-10T13:58:00.502Z,22.31
2023-10-10T13:59:04.848Z,22.25
2023-10-10T14:00:09.468Z,22.25
2023-10-10T14:01:13.867Z,22.25
2023-10-10T14:02:18.481Z,22.19
2023-10-10T14:03:22.550Z,22.19
2023-10-10T14:04:29.595Z,22.13